Time;durP1;ratioP1;P1;durP2;ratioP2;P2;SDS_P1;SDS_P2;PMS_P1;PMS_P2;Temp;Humidity;BMP_temperature;BMP_pressure;BME280_temperature;BME280_humidity;BME280_pressure;Samples;Min_cycle;Max_cycle;Signal;HPM_P1;HPM_P2
2022/12/10 00:00:48;;;;;;;16.70;7.13;;;;;;;8.94;100.00;93811.88;5092990;28;20206;-55
2022/12/10 00:03:13;;;;;;;19.30;7.33;;;;;;;8.92;100.00;93818.03;5092821;28;20192;-57
2022/12/10 00:05:39;;;;;;;24.30;7.77;;;;;;;8.81;100.00;93835.94;5093246;28;20211;-57
2022/12/10 00:08:05;;;;;;;15.60;7.10;;;;;;;8.94;100.00;93806.81;5092834;28;20222;-54
2022/12/10 00:10:30;;;;;;;14.80;7.20;;;;;;;8.90;100.00;93810.56;5092589;28;20243;-55
2022/12/10 00:12:55;;;;;;;18.43;7.07;;;;;;;9.07;100.00;93827.56;5092911;28;20274;-56
2022/12/10 00:15:21;;;;;;;16.13;7.53;;;;;;;8.88;100.00;93817.53;5092863;28;20199;-57
2022/12/10 00:17:46;;;;;;;17.23;7.37;;;;;;;8.97;100.00;93809.06;5092759;28;20236;-56
2022/12/10 00:20:12;;;;;;;15.60;7.53;;;;;;;8.98;100.00;93787.84;5092369;28;20593;-56
2022/12/10 00:22:37;;;;;;;14.37;6.87;;;;;;;9.06;100.00;93815.03;5091562;28;20189;-54
2022/12/10 00:25:03;;;;;;;19.57;7.93;;;;;;;8.83;100.00;93788.44;5090951;28;20262;-54
2022/12/10 00:27:28;;;;;;;22.83;7.70;;;;;;;9.00;100.00;93785.97;5073999;28;20576;-57
2022/12/10 00:29:53;;;;;;;17.27;7.30;;;;;;;8.86;100.00;93783.13;5092640;28;20305;-56
2022/12/10 00:32:19;;;;;;;14.73;7.00;;;;;;;9.00;100.00;93795.31;5092658;28;20237;-55
2022/12/10 00:34:44;;;;;;;22.57;7.30;;;;;;;8.95;100.00;93802.53;5092349;28;20208;-57
2022/12/10 00:37:10;;;;;;;22.27;8.23;;;;;;;8.94;100.00;93800.94;5092331;28;20215;-55
2022/12/10 00:39:35;;;;;;;19.47;8.13;;;;;;;8.92;100.00;93812.97;5092083;28;20204;-55
2022/12/10 00:42:01;;;;;;;18.30;8.20;;;;;;;8.98;100.00;93817.47;5092252;28;20227;-55
2022/12/10 00:44:27;;;;;;;18.40;6.80;;;;;;;8.80;100.00;93812.34;5092332;28;20196;-57
2022/12/10 00:46:52;;;;;;;19.27;7.20;;;;;;;8.90;100.00;93809.78;5073574;28;20574;-58
2022/12/10 00:49:18;;;;;;;12.03;7.00;;;;;;;9.11;100.00;93805.28;5092148;28;20220;-56
2022/12/10 00:51:43;;;;;;;16.37;7.73;;;;;;;9.26;100.00;93802.09;5090453;28;20929;-56
2022/12/10 00:54:09;;;;;;;19.93;7.37;;;;;;;9.36;100.00;93821.53;5090955;28;20222;-55
2022/12/10 00:56:35;;;;;;;15.73;7.00;;;;;;;9.15;100.00;93820.03;5092130;28;20188;-56
2022/12/10 00:59:01;;;;;;;17.73;7.67;;;;;;;8.93;100.00;93822.94;5091078;28;20189;-55
2022/12/10 01:01:33;;;;;;;17.90;7.30;;;;;;;8.91;100.00;93807.09;5091931;28;20375;-55
2022/12/10 01:04:18;;;;;;;11.33;6.90;;;;;;;8.73;100.00;93802.91;5091816;28;20570;-56
2022/12/10 01:06:48;;;;;;;20.03;9.00;;;;;;;8.71;100.00;93830.91;5091856;28;20177;-55
2022/12/10 01:09:17;;;;;;;23.00;7.50;;;;;;;8.67;100.00;93814.41;5091622;28;20212;-56
2022/12/10 01:11:44;;;;;;;16.17;6.90;;;;;;;8.89;100.00;93808.97;5091919;28;20241;-57
2022/12/10 01:14:13;;;;;;;11.77;6.23;;;;;;;8.99;100.00;93807.19;5091821;28;20696;-55
2022/12/10 01:16:39;;;;;;;17.97;6.60;;;;;;;9.17;100.00;93814.84;5091656;28;20188;-54
2022/12/10 01:19:05;;;;;;;14.73;6.43;;;;;;;9.32;100.00;93799.00;5091350;28;20183;-54
2022/12/10 01:21:31;;;;;;;16.37;6.90;;;;;;;9.45;100.00;93829.09;5090434;28;20271;-54
2022/12/10 01:23:57;;;;;;;16.67;7.53;;;;;;;9.26;100.00;93797.03;5089729;28;20747;-57
2022/12/10 01:26:26;;;;;;;17.83;6.73;;;;;;;9.07;100.00;93787.00;5091416;28;20275;-55
2022/12/10 01:28:53;;;;;;;16.90;6.87;;;;;;;9.19;100.00;93795.22;5092019;28;20723;-56
2022/12/10 01:31:22;;;;;;;11.73;6.57;;;;;;;9.05;100.00;93781.28;5091337;28;20194;-56
2022/12/10 01:33:48;;;;;;;13.83;6.87;;;;;;;9.07;100.00;93796.34;5091277;28;20223;-55
2022/12/10 01:36:15;;;;;;;19.00;7.37;;;;;;;9.05;100.00;93788.09;5091704;28;20764;-54
2022/12/10 01:38:41;;;;;;;12.43;7.03;;;;;;;9.20;100.00;93776.50;5091359;28;20184;-55
2022/12/10 01:41:12;;;;;;;21.43;7.77;;;;;;;9.20;100.00;93789.19;5091605;28;20200;-57
2022/12/10 01:44:07;;;;;;;18.80;7.07;;;;;;;9.06;100.00;93777.00;5073179;28;20191;-55
2022/12/10 01:46:53;;;;;;;19.97;7.17;;;;;;;9.25;100.00;93774.38;5001795;28;20721;-56
2022/12/10 01:49:32;;;;;;;14.27;6.37;;;;;;;9.34;100.00;93814.06;5091192;28;20212;-57
2022/12/10 01:51:58;;;;;;;17.40;6.53;;;;;;;9.28;100.00;93784.19;5089428;28;20184;-56
2022/12/10 01:54:27;;;;;;;14.07;6.70;;;;;;;9.14;100.00;93766.94;5090284;28;20210;-56
2022/12/10 01:57:07;;;;;;;11.97;6.47;;;;;;;9.15;100.00;93771.09;5090981;28;20658;-56
2022/12/10 01:59:34;;;;;;;15.40;5.93;;;;;;;9.25;100.00;93775.13;5091167;28;20206;-56
2022/12/10 02:02:15;;;;;;;13.43;5.63;;;;;;;9.46;100.00;93789.28;5091174;28;20188;-56
2022/12/10 02:05:11;;;;;;;12.60;5.37;;;;;;;9.32;100.00;93809.16;5091261;28;20273;-54
2022/12/10 02:07:42;;;;;;;12.63;5.67;;;;;;;9.25;100.00;93771.81;5091169;28;20203;-55
2022/12/10 02:10:22;;;;;;;11.80;5.90;;;;;;;9.42;100.00;93786.25;5092140;28;20258;-57
2022/12/10 02:13:04;;;;;;;11.10;5.27;;;;;;;9.28;100.00;93767.25;5097794;28;20203;-54
2022/12/10 02:15:52;;;;;;;10.50;5.20;;;;;;;9.21;100.00;93773.81;5097641;28;20208;-55
2022/12/10 02:18:26;;;;;;;9.73;5.67;;;;;;;9.23;100.00;93782.09;5097368;28;20317;-57
2022/12/10 02:20:57;;;;;;;14.37;5.93;;;;;;;9.25;100.00;93789.56;5077897;28;20207;-54
2022/12/10 02:23:30;;;;;;;15.43;6.00;;;;;;;9.22;100.00;93780.50;5095345;28;20200;-55
2022/12/10 02:26:07;;;;;;;9.30;5.50;;;;;;;9.40;100.00;93775.44;5096287;28;20204;-54
2022/12/10 02:28:55;;;;;;;17.70;5.67;;;;;;;9.48;100.00;93787.41;5097509;28;20215;-55
2022/12/10 02:31:26;;;;;;;12.87;5.43;;;;;;;9.38;100.00;93764.66;5097484;28;20216;-54
2022/12/10 02:33:57;;;;;;;11.87;5.37;;;;;;;9.30;100.00;93754.44;5097188;28;20187;-57
2022/12/10 02:36:25;;;;;;;14.53;5.73;;;;;;;9.41;100.00;93769.44;5097324;28;20199;-56
2022/12/10 02:38:52;;;;;;;10.77;5.33;;;;;;;9.63;100.00;93763.13;5097063;28;20198;-56
2022/12/10 02:41:23;;;;;;;12.90;5.70;;;;;;;9.75;100.00;93772.09;5097068;28;20257;-57
2022/12/10 02:43:52;;;;;;;10.30;5.27;;;;;;;9.61;100.00;93773.44;5097033;28;20275;-57
2022/12/10 02:46:18;;;;;;;13.87;5.87;;;;;;;9.36;100.00;93758.91;5096719;28;20203;-55
2022/12/10 02:48:46;;;;;;;13.80;6.70;;;;;;;9.22;100.00;93734.88;5096674;28;20211;-56
2022/12/10 02:51:11;;;;;;;14.43;5.93;;;;;;;9.43;100.00;93742.19;5077564;28;20241;-54
2022/12/10 02:53:44;;;;;;;12.13;5.37;;;;;;;9.49;100.00;93736.53;5095977;28;20192;-55
2022/12/10 02:56:34;;;;;;;16.03;5.93;;;;;;;9.34;100.00;93732.91;5096976;28;20204;-56
2022/12/10 02:59:16;;;;;;;16.87;5.53;;;;;;;9.28;100.00;93736.81;5097257;28;20345;-57
2022/12/10 03:01:53;;;;;;;12.67;6.00;;;;;;;9.42;100.00;93748.19;5097414;28;20200;-57
2022/12/10 03:04:32;;;;;;;10.43;6.00;;;;;;;9.38;100.00;93743.56;5097133;28;20207;-57
2022/12/10 03:07:04;;;;;;;12.00;5.20;;;;;;;9.58;100.00;93761.03;5078983;28;20223;-57
2022/12/10 03:09:39;;;;;;;10.17;6.13;;;;;;;9.35;100.00;93737.06;5097070;28;20280;-55
2022/12/10 03:12:21;;;;;;;11.00;4.80;;;;;;;9.53;100.00;93747.19;5097155;28;20184;-55
2022/12/10 03:14:47;;;;;;;11.60;5.80;;;;;;;9.49;100.00;93761.09;5097136;28;20212;-55
2022/12/10 03:17:14;;;;;;;9.90;4.87;;;;;;;9.43;100.00;93759.94;5096680;28;20236;-57
2022/12/10 03:19:47;;;;;;;8.47;5.90;;;;;;;9.47;100.00;93760.44;5096142;28;20676;-57
2022/12/10 03:22:14;;;;;;;11.90;5.70;;;;;;;9.41;100.00;93741.53;5092441;28;20578;-56
2022/12/10 03:24:42;;;;;;;11.50;5.43;;;;;;;9.67;100.00;93765.22;5091934;28;20254;-54
2022/12/10 03:27:09;;;;;;;13.33;5.20;;;;;;;9.62;100.00;93754.72;5093654;28;20260;-57
2022/12/10 03:29:48;;;;;;;13.33;5.87;;;;;;;9.48;100.00;93752.69;5093412;28;20360;-58
2022/12/10 03:32:15;;;;;;;9.80;4.73;;;;;;;9.56;100.00;93744.34;5093488;28;20191;-56
2022/12/10 03:34:43;;;;;;;10.47;5.00;;;;;;;9.71;100.00;93735.28;5093499;28;20208;-57
2022/12/10 03:37:09;;;;;;;8.30;4.50;;;;;;;9.51;100.00;93734.66;5093568;28;20257;-57
2022/12/10 03:39:34;;;;;;;11.67;5.73;;;;;;;9.39;100.00;93756.09;5093385;28;20295;-54
2022/12/10 03:42:00;;;;;;;12.37;5.57;;;;;;;9.33;100.00;93744.00;5093404;28;20184;-56
2022/12/10 03:44:34;;;;;;;15.57;5.70;;;;;;;9.70;100.00;93742.09;5093240;28;20215;-56
2022/12/10 03:47:01;;;;;;;13.00;5.03;;;;;;;9.80;100.00;93749.59;5092919;28;20191;-55
2022/12/10 03:49:27;;;;;;;10.80;5.10;;;;;;;9.82;100.00;93738.38;5093002;28;20287;-56
2022/12/10 03:51:53;;;;;;;11.10;4.63;;;;;;;9.80;100.00;93737.72;5091583;28;20184;-55
2022/12/10 03:54:19;;;;;;;6.77;4.50;;;;;;;9.84;100.00;93743.28;5091972;28;20200;-59
2022/12/10 03:56:44;;;;;;;16.73;4.93;;;;;;;9.80;100.00;93740.25;5093058;28;20653;-55
2022/12/10 03:59:10;;;;;;;8.17;4.43;;;;;;;9.88;100.00;93734.44;5074973;28;20212;-55
2022/12/10 04:01:35;;;;;;;12.17;5.03;;;;;;;10.05;100.00;93743.78;5092958;28;20208;-57
2022/12/10 04:04:00;;;;;;;12.17;5.17;;;;;;;9.98;100.00;93717.38;5092839;28;20180;-57
2022/12/10 04:06:26;;;;;;;18.83;4.50;;;;;;;9.70;100.00;93709.09;5093030;28;20195;-57
2022/12/10 04:08:52;;;;;;;15.23;5.33;;;;;;;9.72;100.00;93708.94;5092751;28;20210;-55
2022/12/10 04:11:18;;;;;;;13.53;5.53;;;;;;;9.94;100.00;93727.03;5092874;28;20189;-55
2022/12/10 04:16:30;;;;;;;9.90;4.80;;;;;;;9.81;100.00;93701.25;5092543;28;20237;-56
2022/12/10 04:19:02;;;;;;;8.73;4.87;;;;;;;9.98;100.00;93728.31;5092314;28;20180;-57
2022/12/10 04:27:04;;;;;;;12.40;4.50;;;;;;;9.82;100.00;93712.19;5092855;28;20215;-57
2022/12/10 04:29:30;;;;;;;11.17;4.83;;;;;;;9.72;100.00;93708.94;5092511;28;20268;-58
2022/12/10 04:31:57;;;;;;;7.90;4.63;;;;;;;9.96;100.00;93707.38;5092506;28;20649;-55
2022/12/10 04:34:23;;;;;;;10.77;4.37;;;;;;;10.13;100.00;93713.38;5090781;28;20215;-55
2022/12/10 04:36:49;;;;;;;11.87;5.37;;;;;;;9.90;100.00;93720.66;5092200;28;20191;-55
2022/12/10 04:39:15;;;;;;;11.97;4.80;;;;;;;9.57;100.00;93745.94;5092373;28;20283;-55
2022/12/10 04:41:44;;;;;;;11.63;4.67;;;;;;;9.53;100.00;93727.69;5092415;28;20318;-56
2022/12/10 04:44:10;;;;;;;10.97;5.90;;;;;;;9.68;100.00;93738.91;5092434;28;20669;-56
2022/12/10 04:46:36;;;;;;;10.47;5.77;;;;;;;9.83;100.00;93734.09;5092018;28;20203;-54
2022/12/10 04:49:02;;;;;;;12.93;5.90;;;;;;;9.66;100.00;93735.72;5091926;28;20662;-54
2022/12/10 04:51:28;;;;;;;9.87;5.97;;;;;;;9.42;100.00;93732.97;5090680;28;20192;-55
2022/12/10 04:54:00;;;;;;;13.33;5.73;;;;;;;9.66;100.00;93766.16;5090378;28;20187;-57
2022/12/10 04:56:26;;;;;;;9.50;5.13;;;;;;;9.67;100.00;93770.31;5092426;28;20207;-57
2022/12/10 04:58:51;;;;;;;15.67;5.60;;;;;;;9.58;100.00;93728.03;5091908;28;20226;-57
2022/12/10 05:01:18;;;;;;;12.20;5.77;;;;;;;9.73;100.00;93749.41;5092220;28;20705;-55
2022/12/10 05:03:44;;;;;;;10.93;5.93;;;;;;;9.74;100.00;93750.19;5092135;28;20665;-57
2022/12/10 05:06:12;;;;;;;9.03;5.63;;;;;;;9.70;100.00;93719.25;5092090;28;20206;-57
2022/12/10 05:08:40;;;;;;;10.80;6.17;;;;;;;9.64;100.00;93739.34;5091942;28;20220;-55
2022/12/10 05:11:11;;;;;;;11.80;6.03;;;;;;;9.79;100.00;93748.03;5092046;28;20204;-55
2022/12/10 05:13:37;;;;;;;12.57;4.97;;;;;;;9.76;100.00;93744.03;5073869;28;20653;-54
2022/12/10 05:16:11;;;;;;;9.83;5.70;;;;;;;9.43;100.00;93737.13;5091636;28;20207;-55
2022/12/10 05:18:37;;;;;;;14.70;6.43;;;;;;;9.52;100.00;93759.06;5091229;28;20184;-55
2022/12/10 05:21:05;;;;;;;11.63;6.00;;;;;;;9.70;100.00;93754.78;5090572;28;20208;-54
2022/12/10 05:23:32;;;;;;;11.80;6.10;;;;;;;9.66;100.00;93712.88;5090284;28;20199;-58
2022/12/10 05:25:58;;;;;;;11.93;6.03;;;;;;;9.41;100.00;93712.84;5091912;28;20199;-57
2022/12/10 05:28:24;;;;;;;12.70;6.10;;;;;;;9.32;100.00;93729.72;5073496;28;20697;-55
2022/12/10 05:30:49;;;;;;;8.80;5.53;;;;;;;9.44;100.00;93732.81;5091758;28;20204;-55
2022/12/10 05:33:15;;;;;;;12.70;6.53;;;;;;;9.35;100.00;93729.44;5091689;28;20196;-55
2022/12/10 05:35:40;;;;;;;10.83;5.83;;;;;;;9.46;100.00;93705.56;5091356;28;20206;-56
2022/12/10 05:38:06;;;;;;;14.40;6.47;;;;;;;9.49;100.00;93720.53;5091412;28;20210;-56
2022/12/10 05:40:35;;;;;;;12.43;6.03;;;;;;;9.61;100.00;93732.84;5091336;28;20708;-56
2022/12/10 05:43:01;;;;;;;8.77;5.20;;;;;;;9.48;100.00;93740.00;5091735;28;20637;-56
2022/12/10 05:45:26;;;;;;;13.87;6.00;;;;;;;9.39;100.00;93737.56;5090647;28;20204;-56
2022/12/10 05:47:52;;;;;;;12.90;5.57;;;;;;;9.54;100.00;93741.97;5091423;28;20199;-57
2022/12/10 05:50:17;;;;;;;10.57;5.93;;;;;;;9.67;100.00;93749.19;5090979;28;20212;-57
2022/12/10 05:52:43;;;;;;;10.53;5.67;;;;;;;9.72;100.00;93755.44;5071865;28;20261;-55
2022/12/10 05:55:08;;;;;;;10.97;6.27;;;;;;;9.68;100.00;93751.59;5089721;28;20204;-57
2022/12/10 05:57:36;;;;;;;12.87;6.53;;;;;;;9.42;100.00;93732.97;5091164;28;20237;-57
2022/12/10 06:00:03;;;;;;;18.23;6.20;;;;;;;9.47;100.00;93748.56;5091046;28;20282;-56
2022/12/10 06:02:32;;;;;;;16.83;6.67;;;;;;;9.69;100.00;93758.28;5091091;28;20196;-57
2022/12/10 06:04:57;;;;;;;13.07;6.07;;;;;;;9.67;100.00;93741.59;5090813;28;20208;-58
2022/12/10 06:07:23;;;;;;;9.63;6.17;;;;;;;9.96;100.00;93755.59;5091157;28;20184;-56
2022/12/10 06:09:48;;;;;;;13.00;5.83;;;;;;;9.88;100.00;93753.00;5091064;28;20303;-55
2022/12/10 06:12:14;;;;;;;18.60;10.20;;;;;;;9.70;100.00;93761.59;5091308;28;20641;-55
2022/12/10 06:14:39;;;;;;;12.23;6.30;;;;;;;9.79;100.00;93756.44;5091153;28;20652;-58
2022/12/10 06:17:04;;;;;;;13.03;6.13;;;;;;;9.98;100.00;93752.91;5090438;28;20237;-57
2022/12/10 06:19:30;;;;;;;19.53;9.37;;;;;;;9.77;100.00;93747.38;5091066;28;20204;-56
2022/12/10 06:21:55;;;;;;;14.43;7.30;;;;;;;9.53;100.00;93755.59;5071238;28;20203;-60
2022/12/10 06:24:20;;;;;;;15.47;7.90;;;;;;;9.50;100.00;93750.81;5089807;28;20234;-55
2022/12/10 06:26:46;;;;;;;13.63;6.60;;;;;;;9.70;100.00;93764.13;5090949;28;20270;-56
2022/12/10 06:29:11;;;;;;;14.73;7.87;;;;;;;9.74;100.00;93753.53;5090800;28;20218;-55
2022/12/10 06:31:37;;;;;;;16.17;7.93;;;;;;;9.81;100.00;93736.78;5090923;28;20216;-55
2022/12/10 06:34:02;;;;;;;14.23;7.23;;;;;;;10.06;100.00;93736.00;5090695;28;20210;-56
2022/12/10 06:36:28;;;;;;;21.57;13.50;;;;;;;9.68;100.00;93745.72;5090871;28;20684;-58
2022/12/10 06:38:53;;;;;;;18.47;9.03;;;;;;;9.77;100.00;93737.22;5090764;28;20214;-57
2022/12/10 06:41:20;;;;;;;12.10;6.97;;;;;;;10.22;100.00;93717.53;5090634;28;20640;-57
2022/12/10 06:43:46;;;;;;;14.60;6.67;;;;;;;10.24;100.00;93732.66;5090649;28;20184;-57
2022/12/10 06:46:14;;;;;;;16.13;7.50;;;;;;;9.98;100.00;93738.47;5090383;28;20195;-57
2022/12/10 06:48:40;;;;;;;18.23;8.03;;;;;;;9.72;100.00;93742.75;5072074;28;20692;-55
2022/12/10 06:51:06;;;;;;;10.93;7.00;;;;;;;10.03;100.00;93746.47;5071122;28;20686;-56
2022/12/10 06:53:33;;;;;;;14.43;7.23;;;;;;;10.16;100.00;93746.06;5089020;28;20670;-58
2022/12/10 06:56:00;;;;;;;20.47;8.20;;;;;;;10.33;100.00;93754.59;5090717;28;20257;-56
2022/12/10 06:58:28;;;;;;;11.43;7.50;;;;;;;10.23;100.00;93764.88;5093039;28;20275;-56
2022/12/10 07:00:54;;;;;;;20.93;12.67;;;;;;;9.93;100.00;93761.00;5094310;28;20619;-55
2022/12/10 07:03:19;;;;;;;22.80;12.87;;;;;;;9.82;100.00;93757.88;5093773;28;20196;-57
2022/12/10 07:05:44;;;;;;;15.33;8.63;;;;;;;9.92;100.00;93748.44;5075466;28;20211;-58
2022/12/10 07:08:10;;;;;;;14.17;8.13;;;;;;;10.09;100.00;93743.31;5093870;28;20723;-56
2022/12/10 07:10:37;;;;;;;15.13;8.07;;;;;;;10.22;100.00;93760.72;5093603;28;20582;-56
2022/12/10 07:13:02;;;;;;;13.70;7.17;;;;;;;10.35;100.00;93771.28;5093789;28;20184;-54
2022/12/10 07:15:28;;;;;;;15.30;7.43;;;;;;;10.11;100.00;93774.47;5094292;28;20208;-58
2022/12/10 07:17:54;;;;;;;15.87;9.37;;;;;;;9.76;100.00;93761.00;5093698;28;20188;-58
2022/12/10 07:20:19;;;;;;;16.33;8.97;;;;;;;9.74;100.00;93757.81;5075603;28;20196;-58
2022/12/10 07:22:45;;;;;;;16.67;8.93;;;;;;;9.61;100.00;93750.59;5094158;28;20192;-56
2022/12/10 07:25:10;;;;;;;16.80;10.33;;;;;;;9.75;100.00;93747.53;5075598;28;20288;-56
2022/12/10 07:27:36;;;;;;;14.77;8.70;;;;;;;9.91;100.00;93745.13;5075457;28;20560;-57
2022/12/10 07:30:01;;;;;;;16.47;7.53;;;;;;;10.20;100.00;93728.81;5093089;28;20235;-57
2022/12/10 07:32:28;;;;;;;18.17;8.83;;;;;;;10.33;100.00;93721.56;5093051;28;20279;-56
2022/12/10 07:34:53;;;;;;;19.90;9.50;;;;;;;10.31;100.00;93736.16;5091399;28;20257;-57
2022/12/10 07:37:19;;;;;;;13.77;9.47;;;;;;;9.97;100.00;93741.97;5091420;28;20628;-58
2022/12/10 07:39:44;;;;;;;18.43;9.10;;;;;;;9.93;100.00;93724.66;5091737;28;20273;-55
2022/12/10 07:42:09;;;;;;;14.63;8.63;;;;;;;10.19;100.00;93712.78;5093368;28;20188;-55
2022/12/10 07:44:35;;;;;;;16.50;9.00;;;;;;;9.89;100.00;93703.84;5075460;28;20279;-57
2022/12/10 07:47:00;;;;;;;17.57;9.27;;;;;;;9.99;100.00;93714.69;5075265;28;20732;-58
2022/12/10 07:49:25;;;;;;;15.40;9.57;;;;;;;10.05;100.00;93744.56;5093184;28;20222;-56
2022/12/10 07:51:51;;;;;;;25.20;9.70;;;;;;;9.94;100.00;93737.19;5093098;28;20674;-57
2022/12/10 07:54:17;;;;;;;20.40;10.50;;;;;;;9.87;100.00;93735.41;5093197;28;20286;-55
2022/12/10 07:56:43;;;;;;;19.37;10.47;;;;;;;9.77;100.00;93732.16;5092825;28;20253;-56
2022/12/10 07:59:09;;;;;;;18.77;10.17;;;;;;;9.91;100.00;93724.00;5092245;28;20212;-55
2022/12/10 08:01:34;;;;;;;17.23;9.70;;;;;;;10.05;100.00;93708.22;5091189;28;20188;-57
2022/12/10 08:04:00;;;;;;;20.00;9.20;;;;;;;9.95;100.00;93710.88;5090522;28;20180;-56
2022/12/10 08:06:27;;;;;;;17.67;9.67;;;;;;;9.91;100.00;93712.13;5090851;28;20219;-56
2022/12/10 08:08:53;;;;;;;18.17;9.97;;;;;;;10.16;100.00;93707.97;5092339;28;20235;-56
2022/12/10 08:11:20;;;;;;;16.83;11.07;;;;;;;10.30;100.00;93697.28;5074740;28;20219;-56
2022/12/10 08:13:46;;;;;;;19.63;11.33;;;;;;;10.05;100.00;93703.94;5092737;28;20188;-54
2022/12/10 08:16:17;;;;;;;16.60;10.73;;;;;;;10.01;100.00;93702.66;5092730;28;20192;-55
2022/12/10 08:18:44;;;;;;;22.10;10.93;;;;;;;10.37;100.00;93703.34;5092966;28;20195;-55
2022/12/10 08:21:16;;;;;;;21.27;10.17;;;;;;;10.29;100.00;93713.47;5093047;28;20277;-55
2022/12/10 08:23:42;;;;;;;19.00;11.00;;;;;;;10.31;100.00;93713.31;5092486;28;20211;-56
2022/12/10 08:26:09;;;;;;;15.37;9.87;;;;;;;10.57;100.00;93694.53;5092310;28;20674;-55
2022/12/10 08:28:35;;;;;;;19.73;9.63;;;;;;;10.41;100.00;93663.19;5092384;28;20216;-54
2022/12/10 08:31:02;;;;;;;16.10;9.40;;;;;;;10.28;100.00;93699.16;5091946;28;20295;-55
2022/12/10 08:33:28;;;;;;;20.77;10.73;;;;;;;10.23;100.00;93696.28;5090553;28;20711;-56
2022/12/10 08:35:58;;;;;;;16.97;10.23;;;;;;;10.38;100.00;93676.19;5092078;28;20208;-57
2022/12/10 08:38:24;;;;;;;18.10;9.47;;;;;;;10.56;100.00;93689.63;5092369;28;20249;-58
2022/12/10 08:40:49;;;;;;;23.70;10.97;;;;;;;10.61;100.00;93689.94;5092196;28;20204;-56
2022/12/10 08:43:15;;;;;;;18.17;11.37;;;;;;;10.70;100.00;93694.09;5092291;28;20588;-56
2022/12/10 08:45:40;;;;;;;20.00;10.13;;;;;;;10.77;100.00;93690.78;5073928;28;20357;-55
2022/12/10 08:48:05;;;;;;;19.97;10.43;;;;;;;11.03;100.00;93679.72;5092028;28;20196;-56
2022/12/10 08:50:34;;;;;;;17.23;9.27;;;;;;;10.74;100.00;93664.88;5092436;28;20235;-55
2022/12/10 08:53:00;;;;;;;12.83;9.17;;;;;;;10.74;100.00;93652.19;5092277;28;20215;-55
2022/12/10 08:55:25;;;;;;;20.47;10.90;;;;;;;10.85;100.00;93647.59;5092119;28;20211;-55
2022/12/10 08:57:51;;;;;;;17.80;9.30;;;;;;;10.99;100.00;93664.78;5092242;28;20196;-55
2022/12/10 09:00:16;;;;;;;12.53;9.47;;;;;;;11.13;100.00;93665.91;5091830;28;20623;-55
2022/12/10 09:02:42;;;;;;;23.83;11.83;;;;;;;10.77;100.00;93651.84;5091837;28;20183;-56
2022/12/10 09:05:07;;;;;;;21.37;12.27;;;;;;;10.85;100.00;93664.59;5092079;28;20208;-57
2022/12/10 09:07:33;;;;;;;24.83;13.57;;;;;;;10.66;100.00;93660.59;5091747;28;20243;-56
2022/12/10 09:09:58;;;;;;;25.43;12.03;;;;;;;10.71;100.00;93658.38;5091947;28;20586;-55
2022/12/10 09:12:24;;;;;;;19.07;12.10;;;;;;;10.95;100.00;93648.25;5091952;28;20237;-55
2022/12/10 09:14:49;;;;;;;21.27;12.17;;;;;;;11.09;100.00;93643.50;5091114;28;20287;-58
2022/12/10 09:17:15;;;;;;;27.00;12.50;;;;;;;11.00;100.00;93645.22;5091510;28;20184;-59
2022/12/10 09:19:40;;;;;;;30.30;16.73;;;;;;;11.26;100.00;93656.06;5091066;28;20723;-57
2022/12/10 09:22:05;;;;;;;20.23;12.53;;;;;;;11.46;100.00;93634.44;5091398;28;20261;-58
2022/12/10 09:24:31;;;;;;;25.23;12.57;;;;;;;11.19;100.00;93637.28;5091422;28;20208;-58
2022/12/10 09:26:57;;;;;;;20.83;12.57;;;;;;;11.15;100.00;93653.03;5091565;28;20279;-56
2022/12/10 09:29:22;;;;;;;21.57;12.53;;;;;;;11.25;100.00;93657.00;5091534;28;20219;-59
2022/12/10 09:31:51;;;;;;;19.83;11.33;;;;;;;11.09;100.00;93641.72;5091567;28;20187;-58
2022/12/10 09:34:17;;;;;;;19.27;12.30;;;;;;;11.25;100.00;93635.88;5091637;28;20634;-57
2022/12/10 09:36:43;;;;;;;22.37;11.80;;;;;;;11.45;100.00;93627.75;5091523;28;20231;-57
2022/12/10 09:39:08;;;;;;;19.80;12.23;;;;;;;11.56;100.00;93621.53;5091309;28;20200;-57
2022/12/10 09:41:42;;;;;;;20.40;11.77;;;;;;;11.53;100.00;93607.38;5091614;28;20697;-58
2022/12/10 09:44:33;;;;;;;24.27;13.00;;;;;;;11.66;100.00;93612.00;5091408;28;20352;-56
2022/12/10 09:47:03;;;;;;;24.40;12.93;;;;;;;11.53;100.00;93596.41;5091214;28;20271;-57
2022/12/10 09:49:56;;;;;;;23.50;12.73;;;;;;;11.54;100.00;93603.88;5091223;28;20294;-56
2022/12/10 09:52:24;;;;;;;25.87;12.93;;;;;;;11.74;100.00;93605.16;5091166;28;20188;-55
2022/12/10 09:55:03;;;;;;;19.10;13.00;;;;;;;11.94;100.00;93604.81;5091334;28;20203;-54
2022/12/10 09:57:39;;;;;;;24.70;12.00;;;;;;;12.17;100.00;93623.50;5091203;28;20192;-56
2022/12/10 10:00:15;;;;;;;20.03;11.43;;;;;;;12.20;100.00;93605.34;5072408;28;20261;-54
2022/12/10 10:02:41;;;;;;;23.93;12.07;;;;;;;11.65;100.00;93575.56;5091282;28;20241;-55
2022/12/10 10:05:13;;;;;;;24.70;12.27;;;;;;;11.95;100.00;93607.19;5091458;28;20206;-55
2022/12/10 10:07:48;;;;;;;26.17;12.33;;;;;;;12.28;100.00;93628.25;5091200;28;20294;-55
2022/12/10 10:10:23;;;;;;;19.63;12.23;;;;;;;12.43;100.00;93611.28;5072434;28;20329;-55
2022/12/10 10:12:55;;;;;;;18.30;11.87;;;;;;;12.60;100.00;93597.50;5091219;28;20615;-56
2022/12/10 10:15:25;;;;;;;23.00;11.57;;;;;;;13.12;100.00;93618.88;5091345;28;20291;-57
2022/12/10 10:17:55;;;;;;;19.63;12.17;;;;;;;13.13;100.00;93609.47;5091159;28;20187;-57
2022/12/10 10:20:21;;;;;;;16.03;10.53;;;;;;;13.09;100.00;93637.06;5091166;28;20200;-57
2022/12/10 10:22:46;;;;;;;21.07;10.93;;;;;;;13.03;100.00;93635.16;5091030;28;20268;-58
2022/12/10 10:25:17;;;;;;;22.50;12.40;;;;;;;12.98;100.00;93611.94;5091135;28;20217;-58
2022/12/10 10:27:43;;;;;;;23.17;14.03;;;;;;;12.80;100.00;93593.56;5091534;28;20184;-56
2022/12/10 10:30:17;;;;;;;22.80;16.33;;;;;;;12.82;100.00;93591.63;5090670;28;20212;-57
2022/12/10 10:32:45;;;;;;;24.43;15.83;;;;;;;12.97;100.00;93597.56;5093773;28;20190;-57
2022/12/10 10:35:39;;;;;;;22.27;13.70;;;;;;;13.14;100.00;93601.66;5094593;28;20208;-57
2022/12/10 10:38:20;;;;;;;24.43;14.27;;;;;;;13.44;100.00;93593.09;5076632;28;20214;-56
2022/12/10 10:40:50;;;;;;;21.23;14.17;;;;;;;13.51;100.00;93598.31;5094699;28;20294;-56
2022/12/10 10:43:23;;;;;;;23.60;12.97;;;;;;;14.04;100.00;93625.41;5094462;28;20217;-55
2022/12/10 10:45:56;;;;;;;26.00;13.70;;;;;;;14.16;100.00;93626.53;5094357;28;20215;-56
2022/12/10 10:48:24;;;;;;;20.33;12.33;;;;;;;14.42;100.00;93624.38;5094169;28;20275;-56
2022/12/10 10:50:55;;;;;;;18.13;11.47;;;;;;;14.88;100.00;93651.28;5075993;28;20204;-57
2022/12/10 10:53:42;;;;;;;15.63;11.33;;;;;;;15.32;100.00;93642.66;5094126;28;20662;-57
2022/12/10 10:56:16;;;;;;;20.23;12.68;;;;;;;14.98;100.00;93663.78;5093974;28;20208;-57
2022/12/10 10:59:02;;;;;;;18.10;11.13;;;;;;;14.53;100.00;93615.44;5094156;28;20176;-58
2022/12/10 11:01:46;;;;;;;20.40;10.53;;;;;;;14.80;100.00;93602.78;5093891;28;20192;-56
2022/12/10 11:04:14;;;;;;;18.63;9.95;;;;;;;14.80;100.00;93614.78;5093750;28;20211;-55
2022/12/10 11:06:41;;;;;;;16.37;9.77;;;;;;;14.62;100.00;93569.13;5093845;28;20207;-56
2022/12/10 11:09:07;;;;;;;18.97;10.37;;;;;;;14.74;100.00;93557.47;5093656;28;20261;-57
2022/12/10 11:11:32;;;;;;;15.87;8.90;;;;;;;15.03;100.00;93582.13;5093945;28;20200;-56
2022/12/10 11:14:36;;;;;;;17.58;9.95;;;;;;;15.54;100.00;93621.22;5093377;28;20270;-55
2022/12/10 11:17:10;;;;;;;18.25;9.95;;;;;;;15.30;100.00;93599.31;5093730;28;20705;-56
2022/12/10 11:19:43;;;;;;;16.08;10.27;;;;;;;15.07;100.00;93547.50;5093925;28;20216;-58
2022/12/10 11:22:19;;;;;;;18.33;10.45;;;;;;;15.33;100.00;93552.06;5093721;28;20658;-57
2022/12/10 11:24:46;;;;;;;16.58;10.07;;;;;;;15.39;100.00;93541.09;5093674;28;20703;-58
2022/12/10 11:27:24;;;;;;;16.10;10.07;;;;;;;15.63;100.00;93566.31;5093560;28;20192;-57
2022/12/10 11:30:03;;;;;;;10.10;7.55;;;;;;;15.57;100.00;93572.19;5093322;28;20210;-58
2022/12/10 11:32:44;;;;;;;12.57;6.32;;;;;;;16.00;100.00;93627.44;5093298;28;20204;-55
2022/12/10 11:35:38;;;;;;;8.82;6.35;;;;;;;16.07;100.00;93622.38;5093415;28;20293;-56
2022/12/10 11:38:19;;;;;;;9.60;4.53;;;;;;;15.83;100.00;93632.09;5081727;28;20295;-58